Time;durP1;ratioP1;P1;durP2;ratioP2;P2;SDS_P1;SDS_P2;PMS_P1;PMS_P2;Temp;Humidity;BMP_temperature;BMP_pressure;BME280_temperature;BME280_humidity;BME280_pressure;Samples;Min_cycle;Max_cycle;Signal;HPM_P1;HPM_P2
2023/08/04 00:01:57;;;;;;;;;;;;;;;;;;5026448;27;89281;-76
2023/08/04 00:04:22;;;;;;;;;;;;;;;;;;5027473;27;89758;-76
2023/08/04 00:06:47;;;;;;;;;;;;;;;;;;5028597;27;90964;-69
2023/08/04 00:09:13;;;;;;;;;;;;;;;;;;5028430;27;89383;-67
2023/08/04 00:11:38;;;;;;;;;;;;;;;;;;5029694;27;90532;-68
2023/08/04 00:14:03;;;;;;;;;;;;;;;;;;5028287;27;89424;-65
2023/08/04 00:16:28;;;;;;;;;;;;;;;;;;5029809;27;88992;-66
2023/08/04 00:18:54;;;;;;;;;;;;;;;;;;5028948;27;89685;-70
2023/08/04 00:21:19;;;;;;;;;;;;;;;;;;5030181;27;89003;-64
2023/08/04 00:23:44;;;;;;;;;;;;;;;;;;5028920;27;90229;-69
2023/08/04 00:26:09;;;;;;;;;;;;;;;;;;5029253;27;90159;-66
2023/08/04 00:28:34;;;;;;;;;;;;;;;;;;5027794;27;89822;-64
2023/08/04 00:31:00;;;;;;;;;;;;;;;;;;5028940;27;90515;-63
2023/08/04 00:33:25;;;;;;;;;;;;;;;;;;5032749;27;89632;-68
2023/08/04 00:35:50;;;;;;;;;;;;;;;;;;5032687;27;89432;-74
2023/08/04 00:38:15;;;;;;;;;;;;;;;;;;5032451;27;89707;-66
2023/08/04 00:40:40;;;;;;;;;;;;;;;;;;5030554;27;90195;-71
2023/08/04 00:43:06;;;;;;;;;;;;;;;;;;5031852;27;89676;-70
2023/08/04 00:45:32;;;;;;;;;;;;;;;;;;5032922;27;90702;-73
2023/08/04 00:47:58;;;;;;;;;;;;;;;;;;5027457;27;89672;-75
2023/08/04 00:50:23;;;;;;;;;;;;;;;;;;5030188;27;90179;-74
2023/08/04 00:52:50;;;;;;;;;;;;;;;;;;5031721;27;89487;-72
2023/08/04 00:55:15;;;;;;;;;;;;;;;;;;5032609;27;89779;-73
2023/08/04 00:57:41;;;;;;;;;;;;;;;;;;5032576;27;90561;-73
2023/08/04 01:00:07;;;;;;;;;;;;;;;;;;5033282;27;89275;-74
2023/08/04 01:02:32;;;;;;;;;;;;;;;;;;5031913;27;90725;-74
2023/08/04 01:04:59;;;;;;;;;;;;;;;;;;5032487;27;89828;-75
2023/08/04 01:07:25;;;;;;;;;;;;;;;;;;5033692;27;89365;-75
2023/08/04 01:10:02;;;;;;;;;;;;;;;;;;5032358;27;90257;-72
2023/08/04 01:12:42;;;;;;;;;;;;;;;;;;5032728;27;90248;-75
2023/08/04 01:15:09;;;;;;;;;;;;;;;;;;5029292;27;89969;-71
2023/08/04 01:17:35;;;;;;;;;;;;;;;;;;5032487;27;89746;-73
2023/08/04 01:20:01;;;;;;;;;;;;;;;;;;5031007;27;89293;-75
2023/08/04 01:22:26;;;;;;;;;;;;;;;;;;5034208;27;89061;-75
2023/08/04 01:24:52;;;;;;;;;;;;;;;;;;5031635;27;89794;-75
2023/08/04 01:27:21;;;;;;;;;;;;;;;;;;5030837;27;89190;-72
2023/08/04 01:29:46;;;;;;;;;;;;;;;;;;5032706;27;89735;-74
2023/08/04 01:32:12;;;;;;;;;;;;;;;;;;5027036;27;89615;-71
2023/08/04 01:34:41;;;;;;;;;;;;;;;;;;5031796;27;89121;-74
2023/08/04 01:37:06;;;;;;;;;;;;;;;;;;5030118;27;90768;-75
2023/08/04 01:39:32;;;;;;;;;;;;;;;;;;5030490;27;89517;-73
2023/08/04 01:41:57;;;;;;;;;;;;;;;;;;5029855;27;89375;-76
2023/08/04 01:44:22;;;;;;;;;;;;;;;;;;5033564;27;89736;-75
2023/08/04 01:46:47;;;;;;;;;;;;;;;;;;5024734;27;89081;-74
2023/08/04 01:49:12;;;;;;;;;;;;;;;;;;5063471;27;90835;-75
2023/08/04 01:51:38;;;;;;;;;;;;;;;;;;5031096;27;89222;-72
2023/08/04 01:54:03;;;;;;;;;;;;;;;;;;5023656;27;89092;-75
2023/08/04 01:56:28;;;;;;;;;;;;;;;;;;5030327;27;90750;-75
2023/08/04 01:58:53;;;;;;;;;;;;;;;;;;5031100;27;90189;-66
2023/08/04 02:01:19;;;;;;;;;;;;;;;;;;5030776;27;89901;-76
2023/08/04 02:03:44;;;;;;;;;;;;;;;;;;5032004;27;92167;-74
2023/08/04 02:06:10;;;;;;;;;;;;;;;;;;5032311;27;90366;-74
2023/08/04 02:08:35;;;;;;;;;;;;;;;;;;5034614;27;90022;-74
2023/08/04 02:11:00;;;;;;;;;;;;;;;;;;5031262;27;90155;-74
2023/08/04 02:13:25;;;;;;;;;;;;;;;;;;5031688;27;89224;-75
2023/08/04 02:15:50;;;;;;;;;;;;;;;;;;5029642;27;89890;-76
2023/08/04 02:18:15;;;;;;;;;;;;;;;;;;5030740;27;89819;-72
2023/08/04 02:20:41;;;;;;;;;;;;;;;;;;5026701;27;89441;-71
2023/08/04 02:23:06;;;;;;;;;;;;;;;;;;5029506;27;89728;-73
2023/08/04 02:25:31;;;;;;;;;;;;;;;;;;5062982;27;90373;-75
2023/08/04 02:27:57;;;;;;;;;;;;;;;;;;5033905;27;89024;-72
2023/08/04 02:30:22;;;;;;;;;;;;;;;;;;5031194;27;89210;-69
2023/08/04 02:32:47;;;;;;;;;;;;;;;;;;5032128;27;89068;-64
2023/08/04 02:35:12;;;;;;;;;;;;;;;;;;5029354;27;89906;-70
2023/08/04 02:37:37;;;;;;;;;;;;;;;;;;5031117;27;89422;-68
2023/08/04 02:40:03;;;;;;;;;;;;;;;;;;5029316;27;89650;-65
2023/08/04 02:42:28;;;;;;;;;;;;;;;;;;5031208;27;90088;-64
2023/08/04 02:44:54;;;;;;;;;;;;;;;;;;5028763;27;89688;-75
2023/08/04 02:47:19;;;;;;;;;;;;;;;;;;5033080;27;89595;-74
2023/08/04 02:49:44;;;;;;;;;;;;;;;;;;5030599;27;89959;-66
2023/08/04 02:52:14;;;;;;;;;;;;;;;;;;5030141;27;89600;-62
2023/08/04 02:54:39;;;;;;;;;;;;;;;;;;5027800;27;90963;-61
2023/08/04 02:57:04;;;;;;;;;;;;;;;;;;5028313;27;91091;-72
2023/08/04 02:59:30;;;;;;;;;;;;;;;;;;5030600;27;89366;-70
2023/08/04 03:01:55;;;;;;;;;;;;;;;;;;5029757;27;90065;-75
2023/08/04 03:04:20;;;;;;;;;;;;;;;;;;5028834;27;89376;-71
2023/08/04 03:06:45;;;;;;;;;;;;;;;;;;5029576;27;89577;-74
2023/08/04 03:09:10;;;;;;;;;;;;;;;;;;5032301;27;90060;-75
2023/08/04 03:11:36;;;;;;;;;;;;;;;;;;5030236;27;89168;-75
2023/08/04 03:14:02;;;;;;;;;;;;;;;;;;5031302;27;89030;-74
2023/08/04 03:16:27;;;;;;;;;;;;;;;;;;5029193;27;90517;-75
2023/08/04 03:18:52;;;;;;;;;;;;;;;;;;5026725;27;90017;-75
2023/08/04 03:21:18;;;;;;;;;;;;;;;;;;5028309;27;91003;-75
2023/08/04 03:23:43;;;;;;;;;;;;;;;;;;5029840;27;89958;-76
2023/08/04 03:26:08;;;;;;;;;;;;;;;;;;5028825;27;90209;-75
2023/08/04 03:28:33;;;;;;;;;;;;;;;;;;5030115;27;90443;-70
2023/08/04 03:30:58;;;;;;;;;;;;;;;;;;5031981;27;89243;-67
2023/08/04 03:33:24;;;;;;;;;;;;;;;;;;5029611;27;90340;-69
2023/08/04 03:35:49;;;;;;;;;;;;;;;;;;5030605;27;89128;-75
2023/08/04 03:38:14;;;;;;;;;;;;;;;;;;5028782;27;89561;-75
2023/08/04 03:40:40;;;;;;;;;;;;;;;;;;5026723;27;89798;-74
2023/08/04 03:43:05;;;;;;;;;;;;;;;;;;5028057;27;89329;-72
2023/08/04 03:45:30;;;;;;;;;;;;;;;;;;5029071;27;89779;-75
2023/08/04 03:47:56;;;;;;;;;;;;;;;;;;5028989;27;89686;-76
2023/08/04 03:50:23;;;;;;;;;;;;;;;;;;5029355;27;89607;-75
2023/08/04 03:52:48;;;;;;;;;;;;;;;;;;5028789;27;89648;-73
2023/08/04 03:55:13;;;;;;;;;;;;;;;;;;5028938;27;90305;-75
2023/08/04 03:57:38;;;;;;;;;;;;;;;;;;5029345;27;89866;-74
2023/08/04 04:00:04;;;;;;;;;;;;;;;;;;5028982;27;90711;-68
2023/08/04 04:02:30;;;;;;;;;;;;;;;;;;5030002;27;89500;-71
2023/08/04 04:04:55;;;;;;;;;;;;;;;;;;5029631;27;89176;-72
2023/08/04 04:07:20;;;;;;;;;;;;;;;;;;5025801;27;89782;-71
2023/08/04 04:09:45;;;;;;;;;;;;;;;;;;5033516;27;90460;-73
2023/08/04 04:12:11;;;;;;;;;;;;;;;;;;5032474;27;89529;-70
2023/08/04 04:14:36;;;;;;;;;;;;;;;;;;5034123;27;89613;-68
2023/08/04 04:17:02;;;;;;;;;;;;;;;;;;5021480;27;89037;-74
2023/08/04 04:19:27;;;;;;;;;;;;;;;;;;5025864;27;90838;-75
2023/08/04 04:21:53;;;;;;;;;;;;;;;;;;5027882;27;90289;-76
2023/08/04 04:24:18;;;;;;;;;;;;;;;;;;5022828;27;89571;-76
2023/08/04 04:26:43;;;;;;;;;;;;;;;;;;5027134;27;89044;-73
2023/08/04 04:29:08;;;;;;;;;;;;;;;;;;5029737;27;91101;-76
2023/08/04 04:31:34;;;;;;;;;;;;;;;;;;5027927;27;89168;-72
2023/08/04 04:33:59;;;;;;;;;;;;;;;;;;5029647;27;89673;-67
2023/08/04 04:36:24;;;;;;;;;;;;;;;;;;5030033;27;89399;-64
2023/08/04 04:38:49;;;;;;;;;;;;;;;;;;5027027;27;90489;-72
2023/08/04 04:41:14;;;;;;;;;;;;;;;;;;5026482;27;90548;-70
2023/08/04 04:43:40;;;;;;;;;;;;;;;;;;5032829;27;91001;-71
2023/08/04 04:46:05;;;;;;;;;;;;;;;;;;5028094;27;90069;-66
2023/08/04 04:48:30;;;;;;;;;;;;;;;;;;5029545;27;89779;-67
2023/08/04 04:50:56;;;;;;;;;;;;;;;;;;5026986;27;89544;-69
2023/08/04 04:53:21;;;;;;;;;;;;;;;;;;5030394;27;89960;-72
2023/08/04 04:55:46;;;;;;;;;;;;;;;;;;5029679;27;90355;-75
2023/08/04 04:58:12;;;;;;;;;;;;;;;;;;5028737;27;90825;-76
2023/08/04 05:00:37;;;;;;;;;;;;;;;;;;5026691;27;90302;-71
2023/08/04 05:03:08;;;;;;;;;;;;;;;;;;5024857;27;89163;-70
2023/08/04 05:05:33;;;;;;;;;;;;;;;;;;5024612;27;90971;-69
2023/08/04 05:07:59;;;;;;;;;;;;;;;;;;5028167;27;89368;-63
2023/08/04 05:10:25;;;;;;;;;;;;;;;;;;5026333;27;90762;-61
2023/08/04 05:12:50;;;;;;;;;;;;;;;;;;5027919;27;90632;-72
2023/08/04 05:15:15;;;;;;;;;;;;;;;;;;5027815;27;90223;-72
2023/08/04 05:17:40;;;;;;;;;;;;;;;;;;5031680;27;89227;-70
2023/08/04 05:20:06;;;;;;;;;;;;;;;;;;5032425;27;92400;-73
2023/08/04 05:22:31;;;;;;;;;;;;;;;;;;5028134;27;90089;-74
2023/08/04 05:24:56;;;;;;;;;;;;;;;;;;5024580;27;90049;-73
2023/08/04 05:27:22;;;;;;;;;;;;;;;;;;5028083;27;89886;-69
2023/08/04 05:29:47;;;;;;;;;;;;;;;;;;5029307;27;89689;-71
2023/08/04 05:32:12;;;;;;;;;;;;;;;;;;5020587;27;90597;-78
2023/08/04 05:34:37;;;;;;;;;;;;;;;;;;5028524;27;90220;-79
2023/08/04 05:37:03;;;;;;;;;;;;;;;;;;5028036;27;89381;-74
2023/08/04 05:39:28;;;;;;;;;;;;;;;;;;5027722;27;90402;-76
2023/08/04 05:41:53;;;;;;;;;;;;;;;;;;5027192;27;91021;-82
2023/08/04 05:44:18;;;;;;;;;;;;;;;;;;5027893;27;90309;-74
2023/08/04 05:46:44;;;;;;;;;;;;;;;;;;5028414;27;89344;-77
2023/08/04 05:49:09;;;;;;;;;;;;;;;;;;5026997;27;89551;-81
2023/08/04 05:51:34;;;;;;;;;;;;;;;;;;5024207;27;91275;-76
2023/08/04 05:53:59;;;;;;;;;;;;;;;;;;5028794;27;90325;-81
2023/08/04 05:56:25;;;;;;;;;;;;;;;;;;5028406;27;89705;-80
2023/08/04 05:58:50;;;;;;;;;;;;;;;;;;5027649;27;89655;-81
2023/08/04 06:01:15;;;;;;;;;;;;;;;;;;5031269;27;90496;-80
2023/08/04 06:03:40;;;;;;;;;;;;;;;;;;5063252;27;89952;-81
2023/08/04 06:06:05;;;;;;;;;;;;;;;;;;5029366;27;90222;-81
2023/08/04 06:08:30;;;;;;;;;;;;;;;;;;5031253;27;89878;-78
2023/08/04 06:10:56;;;;;;;;;;;;;;;;;;5029793;27;89491;-78
2023/08/04 06:13:21;;;;;;;;;;;;;;;;;;5029629;27;89437;-68
2023/08/04 06:15:47;;;;;;;;;;;;;;;;;;5029848;27;89573;-73
2023/08/04 06:18:13;;;;;;;;;;;;;;;;;;5025212;27;90736;-74
2023/08/04 06:20:38;;;;;;;;;;;;;;;;;;5026941;27;89609;-74
2023/08/04 06:23:03;;;;;;;;;;;;;;;;;;5027494;27;89383;-72
2023/08/04 06:25:28;;;;;;;;;;;;;;;;;;5024824;27;89092;-74
2023/08/04 06:27:53;;;;;;;;;;;;;;;;;;5025604;27;90617;-73
2023/08/04 06:30:19;;;;;;;;;;;;;;;;;;5020857;27;89713;-74
2023/08/04 06:32:46;;;;;;;;;;;;;;;;;;5027120;27;90704;-75
2023/08/04 06:35:12;;;;;;;;;;;;;;;;;;5026631;27;89021;-72
2023/08/04 06:37:37;;;;;;;;;;;;;;;;;;5026222;27;89664;-75
2023/08/04 06:40:04;;;;;;;;;;;;;;;;;;5025523;27;89230;-71
2023/08/04 06:42:29;;;;;;;;;;;;;;;;;;5025762;27;89922;-72
2023/08/04 06:44:55;;;;;;;;;;;;;;;;;;5027619;27;90093;-67
2023/08/04 06:47:20;;;;;;;;;;;;;;;;;;5060586;27;89132;-72
2023/08/04 06:49:45;;;;;;;;;;;;;;;;;;5023640;27;89731;-66
2023/08/04 06:52:10;;;;;;;;;;;;;;;;;;5025810;27;89413;-64
2023/08/04 06:54:36;;;;;;;;;;;;;;;;;;5027035;27;89723;-65
2023/08/04 06:57:01;;;;;;;;;;;;;;;;;;5027105;27;90628;-66
2023/08/04 06:59:27;;;;;;;;;;;;;;;;;;5026515;27;89471;-67
2023/08/04 07:01:52;;;;;;;;;;;;;;;;;;5026404;27;89679;-65
2023/08/04 07:04:18;;;;;;;;;;;;;;;;;;5028999;27;90712;-73
2023/08/04 07:06:43;;;;;;;;;;;;;;;;;;5024899;27;89355;-73
2023/08/04 07:09:08;;;;;;;;;;;;;;;;;;5026201;27;89681;-69
2023/08/04 07:11:33;;;;;;;;;;;;;;;;;;5020827;27;89549;-71
2023/08/04 07:13:58;;;;;;;;;;;;;;;;;;5026483;27;89644;-72
2023/08/04 07:16:24;;;;;;;;;;;;;;;;;;5025041;27;90935;-68
2023/08/04 07:18:49;;;;;;;;;;;;;;;;;;5021670;27;89138;-62
2023/08/04 07:21:14;;;;;;;;;;;;;;;;;;5025204;27;89747;-64
2023/08/04 07:23:40;;;;;;;;;;;;;;;;;;5022927;27;90327;-63
2023/08/04 07:26:06;;;;;;;;;;;;;;;;;;5023466;27;89335;-64
2023/08/04 07:28:31;;;;;;;;;;;;;;;;;;5020914;27;90346;-62
2023/08/04 07:30:59;;;;;;;;;;;;;;;;;;5021966;27;89570;-66
2023/08/04 07:33:24;;;;;;;;;;;;;;;;;;5020175;27;90058;-70
2023/08/04 07:35:56;;;;;;;;;;;;;;;;;;5022242;27;90115;-73
2023/08/04 07:38:22;;;;;;;;;;;;;;;;;;5023193;27;90818;-74
2023/08/04 07:40:47;;;;;;;;;;;;;;;;;;5021483;27;89482;-72
2023/08/04 07:43:13;;;;;;;;;;;;;;;;;;5021532;27;89495;-73
2023/08/04 07:45:38;;;;;;;;;;;;;;;;;;5026174;27;89790;-72
2023/08/04 07:48:04;;;;;;;;;;;;;;;;;;5028470;27;90910;-73
2023/08/04 07:50:30;;;;;;;;;;;;;;;;;;5019909;27;91314;-70
2023/08/04 07:52:55;;;;;;;;;;;;;;;;;;5017884;27;89154;-69
2023/08/04 07:55:21;;;;;;;;;;;;;;;;;;5022062;27;90237;-72
2023/08/04 07:57:46;;;;;;;;;;;;;;;;;;5023092;27;89805;-72
2023/08/04 08:00:12;;;;;;;;;;;;;;;;;;5021418;27;89068;-71
2023/08/04 08:02:37;;;;;;;;;;;;;;;;;;5026595;27;89740;-71
2023/08/04 08:05:03;;;;;;;;;;;;;;;;;;5021909;27;89937;-72
2023/08/04 08:07:28;;;;;;;;;;;;;;;;;;5026141;27;89789;-71
2023/08/04 08:09:53;;;;;;;;;;;;;;;;;;5025929;27;90249;-72
2023/08/04 08:12:19;;;;;;;;;;;;;;;;;;5026171;27;90063;-75
2023/08/04 08:14:44;;;;;;;;;;;;;;;;;;5027412;27;89772;-76
2023/08/04 08:17:09;;;;;;;;;;;;;;;;;;5024393;27;90692;-71
2023/08/04 08:19:34;;;;;;;;;;;;;;;;;;5023807;27;89598;-71
2023/08/04 08:22:00;;;;;;;;;;;;;;;;;;5024674;27;89873;-63
2023/08/04 08:24:25;;;;;;;;;;;;;;;;;;5020038;27;89706;-71
2023/08/04 08:26:50;;;;;;;;;;;;;;;;;;5021610;27;89113;-70
2023/08/04 08:29:15;;;;;;;;;;;;;;;;;;5021184;27;91482;-73
2023/08/04 08:31:41;;;;;;;;;;;;;;;;;;5024102;27;90374;-73
2023/08/04 08:34:06;;;;;;;;;;;;;;;;;;5019928;27;89748;-74
2023/08/04 08:36:31;;;;;;;;;;;;;;;;;;5023485;27;90589;-72
2023/08/04 08:38:56;;;;;;;;;;;;;;;;;;5020949;27;89883;-71
2023/08/04 08:41:22;;;;;;;;;;;;;;;;;;5025404;27;89116;-72
2023/08/04 08:43:48;;;;;;;;;;;;;;;;;;5027522;27;89563;-70
2023/08/04 08:46:13;;;;;;;;;;;;;;;;;;5026576;27;89083;-72
2023/08/04 08:48:42;;;;;;;;;;;;;;;;;;5021496;27;90170;-70
2023/08/04 08:51:11;;;;;;;;;;;;;;;;;;5026196;27;89500;-72
2023/08/04 08:53:36;;;;;;;;;;;;;;;;;;5029577;27;90828;-76
2023/08/04 08:56:02;;;;;;;;;;;;;;;;;;5030079;27;90365;-66
2023/08/04 08:58:29;;;;;;;;;;;;;;;;;;5026926;27;90061;-69
2023/08/04 09:00:54;;;;;;;;;;;;;;;;;;5028054;27;89566;-69
2023/08/04 09:03:19;;;;;;;;;;;;;;;;;;5024511;27;89612;-69
2023/08/04 09:05:44;;;;;;;;;;;;;;;;;;5024783;27;90240;-64
2023/08/04 09:08:10;;;;;;;;;;;;;;;;;;5029916;27;90632;-65
2023/08/04 09:10:37;;;;;;;;;;;;;;;;;;5027438;27;89140;-66
2023/08/04 09:13:07;;;;;;;;;;;;;;;;;;5029086;27;91907;-69
2023/08/04 09:15:45;;;;;;;;;;;;;;;;;;5027849;27;90462;-69
2023/08/04 09:18:23;;;;;;;;;;;;;;;;;;5027930;27;89850;-68
2023/08/04 09:20:48;;;;;;;;;;;;;;;;;;5026977;27;89233;-70
2023/08/04 09:23:13;;;;;;;;;;;;;;;;;;5022885;27;89216;-69
2023/08/04 09:25:50;;;;;;;;;;;;;;;;;;5024946;27;90385;-71
2023/08/04 09:28:16;;;;;;;;;;;;;;;;;;5022335;27;90563;-67
2023/08/04 09:30:58;;;;;;;;;;;;;;;;;;5029119;27;89491;-68
2023/08/04 09:33:24;;;;;;;;;;;;;;;;;;5026980;27;89096;-66
2023/08/04 09:35:49;;;;;;;;;;;;;;;;;;5028279;27;89626;-66
2023/08/04 09:38:15;;;;;;;;;;;;;;;;;;5026871;27;90795;-71
2023/08/04 09:40:40;;;;;;;;;;;;;;;;;;5027560;27;90782;-64
2023/08/04 09:43:05;;;;;;;;;;;;;;;;;;5025241;27;91908;-62
2023/08/04 09:45:32;;;;;;;;;;;;;;;;;;5024799;27;89807;-69
2023/08/04 09:47:57;;;;;;;;;;;;;;;;;;5021908;27;89808;-71
2023/08/04 09:50:23;;;;;;;;;;;;;;;;;;5021224;27;89737;-70
2023/08/04 09:53:00;;;;;;;;;;;;;;;;;;5026988;27;90514;-70
2023/08/04 09:55:26;;;;;;;;;;;;;;;;;;5021533;27;90245;-70
2023/08/04 09:57:51;;;;;;;;;;;;;;;;;;5026549;27;88995;-70
2023/08/04 10:00:16;;;;;;;;;;;;;;;;;;5025077;27;89729;-69
2023/08/04 10:02:42;;;;;;;;;;;;;;;;;;5023884;27;90593;-68
2023/08/04 10:05:07;;;;;;;;;;;;;;;;;;5026171;27;89616;-72
2023/08/04 10:07:33;;;;;;;;;;;;;;;;;;5026004;27;89826;-72
2023/08/04 10:10:00;;;;;;;;;;;;;;;;;;5015939;27;90079;-71
2023/08/04 10:12:26;;;;;;;;;;;;;;;;;;5023755;27;89742;-67
2023/08/04 10:14:52;;;;;;;;;;;;;;;;;;5028904;27;89909;-69
2023/08/04 10:17:18;;;;;;;;;;;;;;;;;;5027419;27;89451;-67
2023/08/04 10:19:43;;;;;;;;;;;;;;;;;;5031352;27;90269;-71
2023/08/04 10:22:09;;;;;;;;;;;;;;;;;;5027488;27;89333;-68
2023/08/04 10:24:35;;;;;;;;;;;;;;;;;;5027948;27;90504;-71
2023/08/04 10:27:10;;;;;;;;;;;;;;;;;;5027994;27;92561;-69
2023/08/04 10:29:36;;;;;;;;;;;;;;;;;;5029493;27;90285;-71
2023/08/04 10:32:07;;;;;;;;;;;;;;;;;;5024473;27;89436;-70
2023/08/04 10:34:35;;;;;;;;;;;;;;;;;;5028656;27;90675;-69
2023/08/04 10:37:05;;;;;;;;;;;;;;;;;;5027296;27;89230;-70
2023/08/04 10:39:34;;;;;;;;;;;;;;;;;;5025599;27;90553;-70
2023/08/04 10:42:03;;;;;;;;;;;;;;;;;;5030273;27;89675;-66
2023/08/04 10:44:49;;;;;;;;;;;;;;;;;;5024662;27;89079;-71
2023/08/04 10:47:15;;;;;;;;;;;;;;;;;;5026086;27;90130;-67
2023/08/04 10:49:41;;;;;;;;;;;;;;;;;;5027161;27;90285;-70
2023/08/04 10:52:06;;;;;;;;;;;;;;;;;;5023897;27;89926;-66
2023/08/04 10:54:31;;;;;;;;;;;;;;;;;;5024030;27;89847;-69
2023/08/04 10:56:57;;;;;;;;;;;;;;;;;;5023784;27;89870;-73
2023/08/04 10:59:22;;;;;;;;;;;;;;;;;;5022183;27;89382;-62
2023/08/04 11:01:48;;;;;;;;;;;;;;;;;;5024908;27;90242;-70
2023/08/04 11:04:16;;;;;;;;;;;;;;;;;;5022024;27;89736;-71
2023/08/04 11:06:41;;;;;;;;;;;;;;;;;;5024713;27;89951;-72
2023/08/04 11:09:08;;;;;;;;;;;;;;;;;;5021815;27;89167;-68
2023/08/04 11:11:34;;;;;;;;;;;;;;;;;;5019832;27;90493;-68
2023/08/04 11:13:59;;;;;;;;;;;;;;;;;;5020484;27;89789;-72
2023/08/04 11:16:25;;;;;;;;;;;;;;;;;;5027770;27;89881;-72
2023/08/04 11:18:52;;;;;;;;;;;;;;;;;;5024790;27;90126;-69
2023/08/04 11:21:18;;;;;;;;;;;;;;;;;;5023057;27;89536;-71
2023/08/04 11:23:43;;;;;;;;;;;;;;;;;;5024928;27;89904;-72
2023/08/04 11:26:08;;;;;;;;;;;;;;;;;;5021906;27;89616;-71
2023/08/04 11:28:35;;;;;;;;;;;;;;;;;;5024392;27;89243;-69
2023/08/04 11:31:06;;;;;;;;;;;;;;;;;;5023220;27;90163;-71
2023/08/04 11:33:31;;;;;;;;;;;;;;;;;;5022972;27;90495;-68
2023/08/04 11:35:57;;;;;;;;;;;;;;;;;;5023910;27;90150;-71
2023/08/04 11:38:22;;;;;;;;;;;;;;;;;;5028746;27;89518;-71
2023/08/04 11:40:55;;;;;;;;;;;;;;;;;;5019288;27;89669;-69
2023/08/04 11:43:21;;;;;;;;;;;;;;;;;;5025276;27;89561;-66
2023/08/04 11:45:46;;;;;;;;;;;;;;;;;;5025778;27;90123;-64
2023/08/04 11:48:12;;;;;;;;;;;;;;;;;;5025186;27;90166;-66
2023/08/04 11:50:37;;;;;;;;;;;;;;;;;;5019019;27;90114;-63
2023/08/04 11:53:02;;;;;;;;;;;;;;;;;;5021883;27;90408;-63
2023/08/04 11:55:27;;;;;;;;;;;;;;;;;;5025819;27;89827;-62
2023/08/04 11:57:54;;;;;;;;;;;;;;;;;;5024576;27;89100;-63
2023/08/04 12:00:34;;;;;;;;;;;;;;;;;;5020490;27;90062;-63
2023/08/04 12:03:01;;;;;;;;;;;;;;;;;;5025367;27;89546;-63
2023/08/04 12:05:33;;;;;;;;;;;;;;;;;;5022653;27;91731;-70
2023/08/04 12:07:59;;;;;;;;;;;;;;;;;;5022777;27;89806;-72
2023/08/04 12:10:24;;;;;;;;;;;;;;;;;;5024016;27;89796;-72
2023/08/04 12:12:50;;;;;;;;;;;;;;;;;;5024762;27;89650;-67
2023/08/04 12:15:15;;;;;;;;;;;;;;;;;;5024410;27;89710;-69
2023/08/04 12:17:42;;;;;;;;;;;;;;;;;;5025421;27;89622;-69
2023/08/04 12:20:08;;;;;;;;;;;;;;;;;;5022885;27;90770;-71
2023/08/04 12:22:34;;;;;;;;;;;;;;;;;;5024089;27;89289;-72
2023/08/04 12:24:59;;;;;;;;;;;;;;;;;;5020680;27;89044;-69
2023/08/04 12:27:24;;;;;;;;;;;;;;;;;;5028027;27;89752;-71
2023/08/04 12:29:49;;;;;;;;;;;;;;;;;;5027635;27;89721;-72
2023/08/04 12:32:15;;;;;;;;;;;;;;;;;;5024531;27;92250;-67
2023/08/04 12:34:40;;;;;;;;;;;;;;;;;;5026337;27;90120;-71
2023/08/04 12:37:05;;;;;;;;;;;;;;;;;;5025501;27;89861;-70
2023/08/04 12:39:30;;;;;;;;;;;;;;;;;;5025517;27;89746;-71
2023/08/04 12:41:55;;;;;;;;;;;;;;;;;;5024911;27;89677;-70
2023/08/04 12:44:21;;;;;;;;;;;;;;;;;;5027288;27;89925;-70
2023/08/04 12:46:46;;;;;;;;;;;;;;;;;;5027543;27;89914;-71
2023/08/04 12:49:11;;;;;;;;;;;;;;;;;;5027077;27;90906;-71
2023/08/04 12:51:36;;;;;;;;;;;;;;;;;;5029458;27;90137;-71
2023/08/04 12:54:01;;;;;;;;;;;;;;;;;;5025566;27;89405;-70
2023/08/04 12:56:27;;;;;;;;;;;;;;;;;;5029895;27;89174;-73
2023/08/04 12:58:52;;;;;;;;;;;;;;;;;;5025444;27;89781;-72
2023/08/04 13:01:17;;;;;;;;;;;;;;;;;;5028226;27;90313;-70
2023/08/04 13:03:42;;;;;;;;;;;;;;;;;;5059026;27;89515;-73
2023/08/04 13:06:08;;;;;;;;;;;;;;;;;;5025196;27;90368;-72
2023/08/04 13:08:33;;;;;;;;;;;;;;;;;;5027234;27;91159;-69
2023/08/04 13:10:59;;;;;;;;;;;;;;;;;;5028521;27;89692;-71
2023/08/04 13:13:24;;;;;;;;;;;;;;;;;;5023535;27;90633;-70
2023/08/04 13:15:49;;;;;;;;;;;;;;;;;;5029604;27;89689;-72
2023/08/04 13:18:14;;;;;;;;;;;;;;;;;;5027651;27;89832;-74
2023/08/04 13:20:40;;;;;;;;;;;;;;;;;;5028679;27;89853;-72
2023/08/04 13:23:05;;;;;;;;;;;;;;;;;;5022593;27;89392;-72
2023/08/04 13:25:38;;;;;;;;;;;;;;;;;;5022974;27;91045;-72
2023/08/04 13:28:03;;;;;;;;;;;;;;;;;;5027325;27;89556;-69
2023/08/04 13:30:28;;;;;;;;;;;;;;;;;;5024228;27;90109;-73
2023/08/04 13:32:53;;;;;;;;;;;;;;;;;;5030228;27;90307;-72
2023/08/04 13:35:19;;;;;;;;;;;;;;;;;;5030396;27;90187;-72
2023/08/04 13:37:44;;;;;;;;;;;;;;;;;;5028742;27;89383;-74
2023/08/04 13:40:09;;;;;;;;;;;;;;;;;;5027355;27;90315;-70
2023/08/04 13:42:35;;;;;;;;;;;;;;;;;;5021170;27;91935;-68
2023/08/04 13:45:00;;;;;;;;;;;;;;;;;;5023142;27;90831;-69
2023/08/04 13:47:25;;;;;;;;;;;;;;;;;;5027968;27;89310;-69
2023/08/04 13:49:51;;;;;;;;;;;;;;;;;;5027248;27;89312;-72
2023/08/04 13:52:16;;;;;;;;;;;;;;;;;;5022209;27;90993;-70
2023/08/04 13:54:41;;;;;;;;;;;;;;;;;;5033597;27;91961;-67
2023/08/04 13:57:06;;;;;;;;;;;;;;;;;;5026179;27;90230;-64
2023/08/04 13:59:31;;;;;;;;;;;;;;;;;;5025518;27;89700;-67
2023/08/04 14:01:56;;;;;;;;;;;;;;;;;;5023758;27;89652;-67
2023/08/04 14:04:22;;;;;;;;;;;;;;;;;;5026525;27;89628;-65
2023/08/04 14:06:48;;;;;;;;;;;;;;;;;;5022562;27;89757;-65
2023/08/04 14:09:13;;;;;;;;;;;;;;;;;;5020586;27;89677;-65
2023/08/04 14:11:39;;;;;;;;;;;;;;;;;;5026356;27;90187;-65
2023/08/04 14:14:04;;;;;;;;;;;;;;;;;;5027164;27;89230;-65
2023/08/04 14:16:29;;;;;;;;;;;;;;;;;;5022939;27;89067;-67
2023/08/04 14:18:54;;;;;;;;;;;;;;;;;;5019898;27;90412;-66
2023/08/04 14:21:19;;;;;;;;;;;;;;;;;;5023120;27;89934;-63
2023/08/04 14:23:45;;;;;;;;;;;;;;;;;;5024414;27;91273;-63
2023/08/04 14:26:10;;;;;;;;;;;;;;;;;;5022850;27;89996;-73
2023/08/04 14:28:35;;;;;;;;;;;;;;;;;;5025856;27;90050;-71
2023/08/04 14:31:00;;;;;;;;;;;;;;;;;;5025535;27;89729;-73
2023/08/04 14:33:25;;;;;;;;;;;;;;;;;;5017370;27;91436;-71
2023/08/04 14:35:51;;;;;;;;;;;;;;;;;;5025802;27;89306;-74
2023/08/04 14:38:16;;;;;;;;;;;;;;;;;;5026537;27;91076;-73
2023/08/04 14:40:41;;;;;;;;;;;;;;;;;;5027840;27;90232;-72
2023/08/04 14:43:06;;;;;;;;;;;;;;;;;;5025647;27;90469;-73
2023/08/04 14:45:32;;;;;;;;;;;;;;;;;;5029530;27;89935;-75
2023/08/04 14:47:57;;;;;;;;;;;;;;;;;;5028060;27;89105;-73
2023/08/04 14:50:22;;;;;;;;;;;;;;;;;;5026438;27;91048;-71
2023/08/04 14:52:47;;;;;;;;;;;;;;;;;;5027204;27;89531;-74
2023/08/04 14:55:12;;;;;;;;;;;;;;;;;;5028631;27;89436;-73
2023/08/04 14:57:38;;;;;;;;;;;;;;;;;;5026410;27;89592;-74
2023/08/04 15:00:03;;;;;;;;;;;;;;;;;;5027185;27;90079;-73
2023/08/04 15:02:28;;;;;;;;;;;;;;;;;;5026852;27;90047;-74
2023/08/04 15:04:54;;;;;;;;;;;;;;;;;;5025835;27;89482;-72
2023/08/04 15:07:19;;;;;;;;;;;;;;;;;;5024029;27;89545;-73
2023/08/04 15:09:44;;;;;;;;;;;;;;;;;;5025905;27;89530;-74
2023/08/04 15:12:12;;;;;;;;;;;;;;;;;;5029454;27;90112;-74
2023/08/04 15:14:38;;;;;;;;;;;;;;;;;;5026565;27;89057;-73
2023/08/04 15:17:04;;;;;;;;;;;;;;;;;;5027617;27;89782;-74
2023/08/04 15:19:29;;;;;;;;;;;;;;;;;;5027952;27;89698;-74
2023/08/04 15:21:54;;;;;;;;;;;;;;;;;;5025231;27;89924;-71
2023/08/04 15:24:19;;;;;;;;;;;;;;;;;;5058334;27;92022;-74
2023/08/04 15:26:44;;;;;;;;;;;;;;;;;;5022903;27;91358;-71
2023/08/04 15:29:10;;;;;;;;;;;;;;;;;;5019661;27;89960;-72
2023/08/04 15:31:35;;;;;;;;;;;;;;;;;;5026068;27;89844;-73
2023/08/04 15:34:00;;;;;;;;;;;;;;;;;;5022806;27;89004;-69
2023/08/04 15:36:25;;;;;;;;;;;;;;;;;;5025783;27;90812;-68
2023/08/04 15:38:50;;;;;;;;;;;;;;;;;;5023727;27;89645;-70
2023/08/04 15:41:16;;;;;;;;;;;;;;;;;;5022459;27;89439;-70
2023/08/04 15:43:42;;;;;;;;;;;;;;;;;;5023107;27;89887;-73
2023/08/04 15:46:07;;;;;;;;;;;;;;;;;;5024033;27;92676;-67
2023/08/04 15:48:34;;;;;;;;;;;;;;;;;;5018593;27;91104;-75
2023/08/04 15:51:01;;;;;;;;;;;;;;;;;;5016950;27;90386;-74
2023/08/04 15:53:27;;;;;;;;;;;;;;;;;;5022277;27;89377;-74
2023/08/04 15:55:52;;;;;;;;;;;;;;;;;;5020525;27;89933;-74
2023/08/04 15:58:18;;;;;;;;;;;;;;;;;;5026340;27;89666;-77
2023/08/04 16:00:43;;;;;;;;;;;;;;;;;;5024277;27;89498;-73
2023/08/04 16:03:09;;;;;;;;;;;;;;;;;;5026258;27;89799;-69
2023/08/04 16:05:34;;;;;;;;;;;;;;;;;;5025909;27;89670;-72
2023/08/04 16:07:59;;;;;;;;;;;;;;;;;;5025425;27;89745;-68
2023/08/04 16:10:25;;;;;;;;;;;;;;;;;;5025537;27;90128;-67
2023/08/04 16:12:50;;;;;;;;;;;;;;;;;;5025401;27;89507;-68
2023/08/04 16:15:15;;;;;;;;;;;;;;;;;;5056461;27;91009;-66
2023/08/04 16:17:41;;;;;;;;;;;;;;;;;;5019990;27;90465;-67
2023/08/04 16:20:06;;;;;;;;;;;;;;;;;;5025245;27;89914;-72
2023/08/04 16:22:32;;;;;;;;;;;;;;;;;;5020787;27;89866;-67
2023/08/04 16:24:57;;;;;;;;;;;;;;;;;;5024380;27;89751;-69
2023/08/04 16:27:22;;;;;;;;;;;;;;;;;;5028287;27;89736;-68
2023/08/04 16:29:47;;;;;;;;;;;;;;;;;;5022757;27;89531;-65
2023/08/04 16:32:13;;;;;;;;;;;;;;;;;;5021212;27;89052;-65
2023/08/04 16:34:38;;;;;;;;;;;;;;;;;;5025404;27;90079;-68
2023/08/04 16:37:04;;;;;;;;;;;;;;;;;;5021510;27;89312;-67